Stonetown, Pennsylvania
Current Conditions -  °F | °C
As of 6:54 PM on Friday 21 Nov 2014 (Local Time) from KRDG Reporting Station
Clear Clear  
Wind Chill: 21°   Ceiling: Unl
Heat Index: 29°   Visibility: 10mi
Dew Point: 10°   Wind: 8mph
Humidity: 45%   Direction: 280°W
Pressure: 30.48"   Gusts: NA
Location:  40.2313°N, 75.8555°W
Report Text: KRDG 212354Z AUTO 28007KT 10SM CLR M02/M12 A3048 RMK AO2 SLP332 T10171122 10022 21017 51021
Loading
Personal Weather Stations






























Interactive Weather Map New forecast layout! Learn more

10-Day Weather Forecast

Advertisements
Track Severe Weather on mobile